createdAt,value
2023-03-29T00:02:21.023Z,0.93
2023-03-29T00:04:47.680Z,1.58
2023-03-29T00:07:14.370Z,1.13
2023-03-29T00:09:40.886Z,1.40
2023-03-29T00:12:07.465Z,1.20
2023-03-29T00:14:34.224Z,1.20
2023-03-29T00:17:00.767Z,1.20
2023-03-29T00:19:27.526Z,0.93
2023-03-29T00:21:54.127Z,0.93
2023-03-29T00:24:21.336Z,0.98
2023-03-29T00:26:50.375Z,1.00
2023-03-29T00:29:16.854Z,1.13
2023-03-29T00:31:46.035Z,0.90
2023-03-29T00:34:12.549Z,0.90
2023-03-29T00:36:40.551Z,0.90
2023-03-29T00:39:07.359Z,0.68
2023-03-29T00:41:33.874Z,0.80
2023-03-29T00:44:03.582Z,0.82
2023-03-29T00:46:31.693Z,0.95
2023-03-29T00:49:07.310Z,0.73
2023-03-29T00:51:36.658Z,0.90
2023-03-29T00:54:05.493Z,1.00
2023-03-29T00:56:37.035Z,0.98
2023-03-29T00:59:15.617Z,0.80
2023-03-29T01:01:50.518Z,1.05
2023-03-29T01:04:24.992Z,0.90
2023-03-29T01:06:59.263Z,0.90
2023-03-29T01:09:29.851Z,0.98
2023-03-29T01:11:59.298Z,1.08
2023-03-29T01:14:56.572Z,1.00
2023-03-29T01:17:25.358Z,0.93
2023-03-29T01:19:59.106Z,0.98
2023-03-29T01:22:53.339Z,1.00
2023-03-29T01:25:50.790Z,0.77
2023-03-29T01:28:24.549Z,1.00
2023-03-29T01:31:08.434Z,0.98
2023-03-29T01:33:42.674Z,0.95
2023-03-29T01:36:14.780Z,1.08
2023-03-29T01:39:03.409Z,1.10
2023-03-29T01:41:42.343Z,1.20
2023-03-29T01:44:16.681Z,1.00
2023-03-29T01:46:51.710Z,1.27
2023-03-29T01:49:25.783Z,1.17
2023-03-29T01:52:00.682Z,1.13
2023-03-29T01:54:41.474Z,1.27
2023-03-29T01:57:10.620Z,1.38
2023-03-29T01:59:42.285Z,1.17
2023-03-29T02:02:14.773Z,1.00
2023-03-29T02:04:48.972Z,1.13
2023-03-29T02:07:17.824Z,1.17
2023-03-29T02:09:47.045Z,1.00
2023-03-29T02:12:15.640Z,0.90
2023-03-29T02:14:42.269Z,1.20
2023-03-29T02:17:28.252Z,1.08
2023-03-29T02:20:00.732Z,1.10
2023-03-29T02:22:38.620Z,1.08
2023-03-29T02:25:08.621Z,1.00
2023-03-29T02:27:37.718Z,0.90
2023-03-29T02:30:06.489Z,1.20
2023-03-29T02:33:09.357Z,0.90
2023-03-29T02:35:45.002Z,0.98
2023-03-29T02:38:12.247Z,0.80
2023-03-29T02:40:41.115Z,1.00
2023-03-29T02:43:08.874Z,0.90
2023-03-29T02:45:37.139Z,0.90
2023-03-29T02:48:07.587Z,1.02
2023-03-29T02:50:42.948Z,0.77
2023-03-29T02:53:19.391Z,1.10
2023-03-29T02:55:46.882Z,0.80
2023-03-29T02:58:15.545Z,0.80
2023-03-29T03:00:48.934Z,0.70
2023-03-29T03:03:15.742Z,0.77
2023-03-29T03:05:42.806Z,0.68
2023-03-29T03:08:09.699Z,0.57
2023-03-29T03:10:37.014Z,0.80
2023-03-29T03:13:04.072Z,0.70
2023-03-29T03:15:31.360Z,0.80
2023-03-29T03:17:58.047Z,0.77
2023-03-29T03:20:24.634Z,0.50
2023-03-29T03:22:51.185Z,0.68
2023-03-29T03:25:21.075Z,0.60
2023-03-29T03:27:49.294Z,0.45
2023-03-29T03:30:19.313Z,0.40
2023-03-29T03:32:45.914Z,0.60
2023-03-29T03:35:13.071Z,1.00
2023-03-29T03:37:40.394Z,0.70
2023-03-29T03:40:08.968Z,0.68
2023-03-29T03:42:39.297Z,0.60
2023-03-29T03:45:06.680Z,0.60
2023-03-29T03:47:33.889Z,0.63
2023-03-29T03:50:00.456Z,0.82
2023-03-29T03:52:27.053Z,0.47
2023-03-29T03:54:56.612Z,0.60
2023-03-29T03:57:29.412Z,0.40
2023-03-29T03:59:56.335Z,0.52
2023-03-29T04:02:23.302Z,0.85
2023-03-29T04:04:55.233Z,0.63
2023-03-29T04:07:23.645Z,0.60
2023-03-29T04:09:50.170Z,0.50
2023-03-29T04:12:16.654Z,0.90
2023-03-29T04:14:43.652Z,0.55
2023-03-29T04:17:10.256Z,0.50
2023-03-29T04:19:36.837Z,0.60
2023-03-29T04:22:03.456Z,0.60
2023-03-29T04:24:30.176Z,0.63
2023-03-29T04:26:57.021Z,0.60
2023-03-29T04:29:23.476Z,0.88
2023-03-29T04:31:50.156Z,0.60
2023-03-29T04:34:17.056Z,0.60
2023-03-29T04:36:44.062Z,0.70
2023-03-29T04:39:11.061Z,0.65
2023-03-29T04:41:38.499Z,0.60
2023-03-29T04:44:05.364Z,0.40
2023-03-29T04:46:32.506Z,0.77
2023-03-29T04:48:59.109Z,0.70
2023-03-29T04:51:28.132Z,0.60
2023-03-29T04:53:56.688Z,0.60
2023-03-29T04:56:23.926Z,0.70
2023-03-29T04:58:51.389Z,0.70
2023-03-29T05:01:17.902Z,1.08
2023-03-29T05:03:44.417Z,0.60
2023-03-29T05:06:12.062Z,0.65
2023-03-29T05:08:40.077Z,0.60
2023-03-29T05:11:08.135Z,0.57
2023-03-29T05:13:35.310Z,0.60
2023-03-29T05:16:02.843Z,0.70
2023-03-29T05:18:30.014Z,0.88
2023-03-29T05:20:56.982Z,0.75
2023-03-29T05:23:23.714Z,0.60
2023-03-29T05:25:53.186Z,0.60
2023-03-29T05:28:19.766Z,0.50
2023-03-29T05:30:47.423Z,0.70
2023-03-29T05:33:13.906Z,0.60
2023-03-29T05:35:40.515Z,0.82
2023-03-29T05:38:07.259Z,0.63
2023-03-29T05:40:35.854Z,0.50
2023-03-29T05:43:02.849Z,0.68
2023-03-29T05:45:29.932Z,0.90
2023-03-29T05:47:57.687Z,0.60
2023-03-29T05:50:24.786Z,0.50
2023-03-29T05:52:56.565Z,0.60
2023-03-29T05:55:24.163Z,0.63
2023-03-29T06:00:44.858Z,0.80
2023-03-29T06:03:23.669Z,0.60
2023-03-29T06:06:02.724Z,0.70
2023-03-29T06:08:29.631Z,0.80
2023-03-29T06:11:08.908Z,0.80
2023-03-29T06:13:37.474Z,0.68
2023-03-29T06:16:09.535Z,0.80
2023-03-29T06:18:40.447Z,0.90
2023-03-29T06:21:08.216Z,0.90
2023-03-29T06:23:38.313Z,0.80
2023-03-29T06:26:12.396Z,0.88
2023-03-29T06:31:05.919Z,0.90
2023-03-29T06:33:34.117Z,0.57
2023-03-29T06:36:04.714Z,0.93
2023-03-29T06:38:31.872Z,0.85
2023-03-29T06:41:07.177Z,0.70
2023-03-29T06:43:34.991Z,1.10
2023-03-29T06:46:02.148Z,0.98
2023-03-29T06:48:29.844Z,0.82
2023-03-29T06:50:57.274Z,1.05
2023-03-29T06:53:23.987Z,0.70
2023-03-29T06:55:52.876Z,0.80
2023-03-29T06:58:20.208Z,0.80
2023-03-29T07:00:52.159Z,0.82
2023-03-29T07:03:29.340Z,0.98
2023-03-29T07:06:09.986Z,0.70
2023-03-29T07:08:43.566Z,0.80
2023-03-29T07:11:15.429Z,0.73
2023-03-29T07:13:46.879Z,1.10
2023-03-29T07:16:14.494Z,0.70
2023-03-29T07:18:46.704Z,0.70
2023-03-29T07:21:18.183Z,0.90
2023-03-29T07:23:50.285Z,0.90
2023-03-29T07:26:28.742Z,1.00
2023-03-29T07:29:00.938Z,0.85
2023-03-29T07:31:32.272Z,1.10
2023-03-29T07:34:01.096Z,0.68
2023-03-29T07:36:29.472Z,0.82
2023-03-29T07:38:57.206Z,0.80
2023-03-29T07:41:24.071Z,1.20
2023-03-29T07:43:52.262Z,1.00
2023-03-29T07:46:22.447Z,0.88
2023-03-29T07:48:50.177Z,1.05
2023-03-29T07:51:17.537Z,0.80
2023-03-29T07:53:47.924Z,0.73
2023-03-29T07:56:16.972Z,0.73
2023-03-29T07:58:49.538Z,0.77
2023-03-29T08:01:21.351Z,0.90
2023-03-29T08:03:48.455Z,0.90
2023-03-29T08:06:21.420Z,1.55
2023-03-29T08:08:48.993Z,1.13
2023-03-29T08:11:18.531Z,1.20
2023-03-29T08:13:45.909Z,0.80
2023-03-29T08:16:15.887Z,0.70
2023-03-29T08:18:42.638Z,1.00
2023-03-29T08:21:09.645Z,0.60
2023-03-29T08:23:36.169Z,0.95
2023-03-29T08:26:08.189Z,1.05
2023-03-29T08:28:37.991Z,0.80
2023-03-29T08:31:14.219Z,0.80
2023-03-29T08:33:46.561Z,1.23
2023-03-29T08:36:13.392Z,0.80
2023-03-29T08:38:40.347Z,0.98
2023-03-29T08:41:40.228Z,0.98
2023-03-29T08:44:33.799Z,0.73
2023-03-29T08:47:10.846Z,0.80
2023-03-29T08:49:39.863Z,1.00
2023-03-29T08:52:20.014Z,1.02
2023-03-29T08:54:52.134Z,0.80
2023-03-29T08:57:35.829Z,0.77
2023-03-29T09:00:05.862Z,0.98
2023-03-29T09:02:36.152Z,0.80
2023-03-29T09:05:24.028Z,0.88
2023-03-29T09:07:57.274Z,0.70
2023-03-29T09:10:38.644Z,0.80
2023-03-29T09:13:37.186Z,0.70
2023-03-29T09:16:20.739Z,0.80
2023-03-29T09:19:13.390Z,0.70
2023-03-29T09:22:09.643Z,0.63
2023-03-29T09:25:21.422Z,0.80
2023-03-29T09:27:50.445Z,0.63
2023-03-29T09:30:26.511Z,0.60
2023-03-29T09:33:06.729Z,1.02
2023-03-29T09:35:52.035Z,0.93
2023-03-29T09:38:21.870Z,0.80
2023-03-29T09:41:00.246Z,0.80
2023-03-29T09:43:37.278Z,0.80
2023-03-29T09:46:36.997Z,0.90
2023-03-29T09:49:17.732Z,0.80
2023-03-29T09:51:48.793Z,0.65
2023-03-29T09:54:17.909Z,0.98
2023-03-29T09:56:48.725Z,0.82
2023-03-29T09:59:15.908Z,0.70
2023-03-29T10:01:49.428Z,0.80
2023-03-29T10:04:18.439Z,0.88
2023-03-29T10:06:52.960Z,1.00
2023-03-29T10:09:34.377Z,0.90
2023-03-29T10:12:08.100Z,0.90
2023-03-29T10:14:51.531Z,1.25
2023-03-29T10:17:33.314Z,0.95
2023-03-29T10:20:04.533Z,0.93
2023-03-29T10:22:44.958Z,0.90
2023-03-29T10:25:17.502Z,1.27
2023-03-29T10:27:46.830Z,0.70
2023-03-29T10:30:26.684Z,1.20
2023-03-29T10:32:58.233Z,0.75
2023-03-29T10:35:38.409Z,0.80
2023-03-29T10:38:10.394Z,0.85
2023-03-29T10:40:46.114Z,1.05
2023-03-29T10:43:57.886Z,1.02
2023-03-29T10:46:31.730Z,1.13
2023-03-29T10:51:30.939Z,1.02
2023-03-29T10:54:01.184Z,0.82
2023-03-29T10:56:41.491Z,1.08
2023-03-29T10:59:49.162Z,0.82
2023-03-29T11:02:15.934Z,0.90
2023-03-29T11:04:47.966Z,1.10
2023-03-29T11:07:34.027Z,0.77
2023-03-29T11:10:16.586Z,0.63
2023-03-29T11:12:53.926Z,0.73
2023-03-29T11:15:26.589Z,0.90
2023-03-29T11:17:56.523Z,0.77
2023-03-29T11:20:42.032Z,0.80
2023-03-29T11:23:33.539Z,0.95
2023-03-29T11:26:12.276Z,0.88
2023-03-29T11:28:56.482Z,1.02
2023-03-29T11:31:23.147Z,1.13
2023-03-29T11:34:19.426Z,0.90
2023-03-29T11:36:58.234Z,0.68
2023-03-29T11:40:00.646Z,0.70
2023-03-29T11:42:33.278Z,0.70
2023-03-29T11:45:02.661Z,0.98
2023-03-29T11:47:32.965Z,0.95
2023-03-29T11:50:10.438Z,1.42
2023-03-29T11:52:53.487Z,0.80
2023-03-29T11:55:33.901Z,0.90
2023-03-29T11:58:16.048Z,0.90
2023-03-29T12:00:45.951Z,0.80
2023-03-29T12:03:41.356Z,1.00
2023-03-29T12:06:21.324Z,1.10
2023-03-29T12:09:32.123Z,0.63
2023-03-29T12:12:10.350Z,0.70
2023-03-29T12:14:58.024Z,1.00
2023-03-29T12:17:35.512Z,0.90
2023-03-29T12:20:15.392Z,0.88
2023-03-29T12:22:46.598Z,0.70
2023-03-29T12:25:23.257Z,1.00
2023-03-29T12:27:49.978Z,0.80
2023-03-29T12:30:52.373Z,0.88
2023-03-29T12:33:35.583Z,0.55
2023-03-29T12:36:19.586Z,0.80
2023-03-29T12:38:57.530Z,0.82
2023-03-29T12:41:25.550Z,0.70
2023-03-29T12:43:53.549Z,0.70
2023-03-29T12:46:26.935Z,0.80
2023-03-29T12:48:58.049Z,0.98
2023-03-29T12:51:32.663Z,0.80
2023-03-29T12:54:22.319Z,0.80
2023-03-29T12:56:52.352Z,0.65
2023-03-29T12:59:28.112Z,1.13
2023-03-29T13:02:02.142Z,0.90
2023-03-29T13:05:01.750Z,0.82
2023-03-29T13:07:49.748Z,0.90
2023-03-29T13:10:37.685Z,1.25
2023-03-29T13:13:19.349Z,0.93
2023-03-29T13:15:46.717Z,0.85
2023-03-29T13:18:42.861Z,1.02
2023-03-29T13:21:26.160Z,1.05
2023-03-29T13:24:22.216Z,1.02
2023-03-29T13:27:34.662Z,0.90
2023-03-29T13:30:24.741Z,0.98
2023-03-29T13:33:08.498Z,0.82
2023-03-29T13:36:01.468Z,0.65
2023-03-29T13:38:34.381Z,1.00
2023-03-29T13:41:24.585Z,0.60
2023-03-29T13:44:20.093Z,0.93
2023-03-29T13:47:04.687Z,1.08
2023-03-29T13:49:34.318Z,1.65
2023-03-29T13:52:24.946Z,0.80
2023-03-29T13:55:07.157Z,0.75
2023-03-29T13:58:00.046Z,0.90
2023-03-29T14:00:40.192Z,1.17
2023-03-29T14:03:14.480Z,0.80
2023-03-29T14:05:57.455Z,0.70
2023-03-29T14:08:27.059Z,1.27
2023-03-29T14:10:54.656Z,1.00
2023-03-29T14:13:25.180Z,1.15
2023-03-29T14:15:55.940Z,0.90
2023-03-29T14:18:29.791Z,0.90
2023-03-29T14:20:57.243Z,1.20
2023-03-29T14:23:36.983Z,1.00
2023-03-29T14:26:28.224Z,0.88
2023-03-29T14:29:01.625Z,1.00
2023-03-29T14:31:38.195Z,0.90
2023-03-29T14:34:07.941Z,1.08
2023-03-29T14:36:35.217Z,1.20
2023-03-29T14:39:06.031Z,1.05
2023-03-29T14:41:44.035Z,0.90
2023-03-29T14:44:13.987Z,1.10
2023-03-29T14:46:45.586Z,1.30
2023-03-29T14:49:16.301Z,2.05
2023-03-29T14:51:47.477Z,2.00
2023-03-29T14:54:32.951Z,1.70
2023-03-29T14:57:03.702Z,2.05
2023-03-29T14:59:38.875Z,1.40
2023-03-29T15:02:23.330Z,1.58
2023-03-29T15:05:10.892Z,1.52
2023-03-29T15:07:40.067Z,3.40
2023-03-29T15:10:09.715Z,1.40
2023-03-29T15:12:38.062Z,1.30
2023-03-29T15:15:07.836Z,1.40
2023-03-29T15:17:51.121Z,1.52
2023-03-29T15:20:28.429Z,1.48
2023-03-29T15:23:03.984Z,1.58
2023-03-29T15:25:58.563Z,1.63
2023-03-29T15:28:31.266Z,1.95
2023-03-29T15:31:08.190Z,2.10
2023-03-29T15:33:38.577Z,2.13
2023-03-29T15:36:06.987Z,2.38
2023-03-29T15:38:43.090Z,2.50
2023-03-29T15:41:11.564Z,2.70
2023-03-29T15:43:38.188Z,2.40
2023-03-29T15:46:05.186Z,2.53
2023-03-29T15:48:34.048Z,2.80
2023-03-29T15:51:05.735Z,2.70
2023-03-29T15:53:33.368Z,2.35
2023-03-29T15:56:02.662Z,2.67
2023-03-29T15:58:32.110Z,2.90
2023-03-29T16:01:23.544Z,2.95
2023-03-29T16:03:51.227Z,3.00
2023-03-29T16:06:20.733Z,3.65
2023-03-29T16:08:47.484Z,3.85
2023-03-29T16:11:14.574Z,3.60
2023-03-29T16:13:41.069Z,3.17
2023-03-29T16:16:10.736Z,2.90
2023-03-29T16:18:38.167Z,3.30
2023-03-29T16:21:05.553Z,2.63
2023-03-29T16:23:32.971Z,3.30
2023-03-29T16:25:59.536Z,2.65
2023-03-29T16:28:29.073Z,2.70
2023-03-29T16:30:55.990Z,3.10
2023-03-29T16:33:23.017Z,2.75
2023-03-29T16:35:49.553Z,3.17
2023-03-29T16:38:16.426Z,3.10
2023-03-29T16:40:43.898Z,3.65
2023-03-29T16:43:19.098Z,3.17
2023-03-29T16:45:46.063Z,3.00
2023-03-29T16:48:17.503Z,3.15
2023-03-29T16:50:50.412Z,2.75
2023-03-29T16:53:21.615Z,2.15
2023-03-29T16:55:48.550Z,2.10
2023-03-29T16:58:15.452Z,2.25
2023-03-29T17:00:43.023Z,2.65
2023-03-29T17:03:10.486Z,1.85
2023-03-29T17:05:41.353Z,1.83
2023-03-29T17:08:10.061Z,2.38
2023-03-29T17:10:39.440Z,2.15
2023-03-29T17:13:05.989Z,1.85
2023-03-29T17:15:32.458Z,1.95
2023-03-29T17:17:59.014Z,2.00
2023-03-29T17:20:25.635Z,2.03
2023-03-29T17:22:53.939Z,2.60
2023-03-29T17:25:22.143Z,3.67
2023-03-29T17:27:49.168Z,4.95
2023-03-29T17:30:16.066Z,4.00
2023-03-29T17:32:42.949Z,4.13
2023-03-29T17:35:10.380Z,6.05
2023-03-29T17:37:36.835Z,4.28
2023-03-29T17:40:14.287Z,4.30
2023-03-29T17:42:41.822Z,4.03
2023-03-29T17:45:09.671Z,4.57
2023-03-29T17:47:37.130Z,4.30
2023-03-29T17:50:05.125Z,4.22
2023-03-29T17:52:31.805Z,4.03
2023-03-29T17:54:58.265Z,4.07
2023-03-29T17:57:24.984Z,4.70
2023-03-29T17:59:51.544Z,4.53
2023-03-29T18:02:20.677Z,5.07
2023-03-29T18:04:47.235Z,5.03
2023-03-29T18:07:14.674Z,5.38
2023-03-29T18:09:41.150Z,5.70
2023-03-29T18:12:08.265Z,6.00
2023-03-29T18:14:35.564Z,5.70
2023-03-29T18:17:05.245Z,4.25
2023-03-29T18:19:32.006Z,4.03
2023-03-29T18:21:58.981Z,4.20
2023-03-29T18:24:25.425Z,4.15
2023-03-29T18:26:51.846Z,4.97
2023-03-29T18:29:18.440Z,5.00
2023-03-29T18:31:46.148Z,4.10
2023-03-29T18:34:12.819Z,4.05
2023-03-29T18:36:39.410Z,4.32
2023-03-29T18:39:06.055Z,4.00
2023-03-29T18:41:33.981Z,4.30
2023-03-29T18:44:00.890Z,5.45
2023-03-29T18:46:31.822Z,4.32
2023-03-29T18:48:59.648Z,6.35
2023-03-29T18:51:28.081Z,3.35
2023-03-29T18:53:56.087Z,2.45
2023-03-29T18:56:23.553Z,1.98
2023-03-29T18:58:51.225Z,1.73
2023-03-29T19:01:17.910Z,2.28
2023-03-29T19:03:44.603Z,1.90
2023-03-29T19:06:12.033Z,2.35
2023-03-29T19:08:41.228Z,1.60
2023-03-29T19:11:10.617Z,1.40
2023-03-29T19:13:37.559Z,1.50
2023-03-29T19:16:04.597Z,1.55
2023-03-29T19:18:31.555Z,1.95
2023-03-29T19:20:57.966Z,1.25
2023-03-29T19:23:27.132Z,1.60
2023-03-29T19:25:56.188Z,1.50
2023-03-29T19:28:23.261Z,2.05
2023-03-29T19:30:49.920Z,1.80
2023-03-29T19:33:16.913Z,1.08
2023-03-29T19:35:43.950Z,1.27
2023-03-29T19:38:10.887Z,1.75
2023-03-29T19:40:37.453Z,2.00
2023-03-29T19:43:04.551Z,1.88
2023-03-29T19:45:31.308Z,1.98
2023-03-29T19:48:02.567Z,1.95
2023-03-29T19:50:31.656Z,1.65
2023-03-29T19:52:58.497Z,1.70
2023-03-29T19:55:25.393Z,1.85
2023-03-29T19:57:52.305Z,1.20
2023-03-29T20:00:19.239Z,1.25
2023-03-29T20:02:45.681Z,1.70
2023-03-29T20:05:12.621Z,2.63
2023-03-29T20:07:39.082Z,1.80
2023-03-29T20:10:06.387Z,1.70
2023-03-29T20:12:32.867Z,2.13
2023-03-29T20:14:59.262Z,1.15
2023-03-29T20:17:26.845Z,1.80
2023-03-29T20:19:54.253Z,1.80
2023-03-29T20:22:20.861Z,1.60
2023-03-29T20:24:47.335Z,1.58
2023-03-29T20:27:13.982Z,1.70
2023-03-29T20:29:40.416Z,2.10
2023-03-29T20:32:07.022Z,1.55
2023-03-29T20:34:33.511Z,2.00
2023-03-29T20:37:01.057Z,1.75
2023-03-29T20:39:29.588Z,2.00
2023-03-29T20:41:56.256Z,1.48
2023-03-29T20:44:26.293Z,2.20
2023-03-29T20:47:05.173Z,1.90
2023-03-29T20:49:39.579Z,1.60
2023-03-29T20:52:09.277Z,1.95
2023-03-29T20:54:39.184Z,1.80
2023-03-29T20:57:07.770Z,1.50
2023-03-29T20:59:38.040Z,1.75
2023-03-29T21:02:04.683Z,1.60
2023-03-29T21:04:31.313Z,1.90
2023-03-29T21:06:59.902Z,1.77
2023-03-29T21:09:31.118Z,1.60
2023-03-29T21:11:57.639Z,1.75
2023-03-29T21:14:26.870Z,1.77
2023-03-29T21:16:53.539Z,2.00
2023-03-29T21:19:20.165Z,1.80
2023-03-29T21:21:48.163Z,1.80
2023-03-29T21:24:14.587Z,2.25
2023-03-29T21:26:41.652Z,2.15
2023-03-29T21:29:08.158Z,3.00
2023-03-29T21:31:34.652Z,1.98
2023-03-29T21:34:01.492Z,1.88
2023-03-29T21:36:28.200Z,1.73
2023-03-29T21:38:54.929Z,2.15
2023-03-29T21:41:21.994Z,2.75
2023-03-29T21:43:48.664Z,1.52
2023-03-29T21:46:15.861Z,1.75
2023-03-29T21:48:42.531Z,1.60
2023-03-29T21:51:09.219Z,1.60
2023-03-29T21:53:36.131Z,2.38
2023-03-29T21:56:02.924Z,1.55
2023-03-29T21:58:29.552Z,2.03
2023-03-29T22:00:56.916Z,1.80
2023-03-29T22:03:23.506Z,1.42
2023-03-29T22:06:01.436Z,2.15
2023-03-29T22:08:28.994Z,1.60
2023-03-29T22:10:57.018Z,1.45
2023-03-29T22:13:33.163Z,1.50
2023-03-29T22:16:03.604Z,1.60
2023-03-29T22:18:44.592Z,1.60
2023-03-29T22:21:22.727Z,1.55
2023-03-29T22:23:52.435Z,1.75
2023-03-29T22:26:21.460Z,1.50
2023-03-29T22:28:52.969Z,2.08
2023-03-29T22:31:21.389Z,1.63
2023-03-29T22:33:48.346Z,1.20
2023-03-29T22:36:33.453Z,1.38
2023-03-29T22:39:00.026Z,1.80
2023-03-29T22:41:28.106Z,1.73
2023-03-29T22:43:56.919Z,2.03
2023-03-29T22:46:23.702Z,1.55
2023-03-29T22:48:51.110Z,1.52
2023-03-29T22:51:17.888Z,1.98
2023-03-29T22:53:44.643Z,2.20
2023-03-29T22:56:11.108Z,1.73
2023-03-29T22:58:37.789Z,2.22
2023-03-29T23:01:05.476Z,1.15
2023-03-29T23:03:32.675Z,1.67
2023-03-29T23:06:02.555Z,1.45
2023-03-29T23:08:33.150Z,1.60
2023-03-29T23:11:00.219Z,1.42
2023-03-29T23:13:28.984Z,1.48
2023-03-29T23:15:58.937Z,2.05
2023-03-29T23:18:28.454Z,2.28
2023-03-29T23:20:58.912Z,1.30
2023-03-29T23:23:27.048Z,1.95
2023-03-29T23:25:55.678Z,1.42
2023-03-29T23:28:27.608Z,2.05
2023-03-29T23:31:03.456Z,2.65
2023-03-29T23:33:36.097Z,1.60
2023-03-29T23:36:05.775Z,2.42
2023-03-29T23:38:34.265Z,1.98
2023-03-29T23:41:02.791Z,1.40
2023-03-29T23:43:32.867Z,1.77
2023-03-29T23:46:05.632Z,1.85
2023-03-29T23:48:32.735Z,1.58
2023-03-29T23:50:59.361Z,1.75
2023-03-29T23:53:28.673Z,1.40
2023-03-29T23:56:03.076Z,1.30
2023-03-29T23:58:31.795Z,1.88
